createdAt,value
2019-01-20T00:00:55.534Z,0.02
2019-01-20T00:03:24.444Z,0.05
2019-01-20T00:05:53.428Z,0.15
2019-01-20T00:08:22.392Z,0.15
2019-01-20T00:10:51.411Z,0.15
2019-01-20T00:13:20.409Z,0.04
2019-01-20T00:15:49.427Z,-0.04
2019-01-20T00:18:18.369Z,-0.20
2019-01-20T00:20:47.389Z,-0.12
2019-01-20T00:23:16.425Z,-0.19
2019-01-20T00:25:46.236Z,-0.15
2019-01-20T00:28:15.250Z,-0.17
2019-01-20T00:30:44.211Z,-0.35
2019-01-20T00:33:13.126Z,-0.22
2019-01-20T00:35:42.135Z,-0.16
2019-01-20T00:38:11.214Z,-0.16
2019-01-20T00:40:40.145Z,-0.21
2019-01-20T00:43:09.074Z,-0.19
2019-01-20T00:45:37.994Z,-0.14
2019-01-20T00:48:07.022Z,-0.05
2019-01-20T00:50:35.902Z,-0.03
2019-01-20T00:53:04.937Z,0.02
2019-01-20T00:55:33.874Z,0.01
2019-01-20T00:58:02.860Z,0.00
2019-01-20T01:00:33.072Z,-0.02
2019-01-20T01:03:01.955Z,0.04
2019-01-20T01:05:31.219Z,-0.08
2019-01-20T01:08:00.200Z,-0.14
2019-01-20T01:10:29.241Z,-0.11
2019-01-20T01:12:59.284Z,-0.18
2019-01-20T01:15:28.197Z,-0.25
2019-01-20T01:17:57.200Z,-0.35
2019-01-20T01:20:25.992Z,-0.34
2019-01-20T01:22:54.833Z,-0.39
2019-01-20T01:25:23.690Z,-0.41
2019-01-20T01:27:52.519Z,-0.53
2019-01-20T01:30:23.198Z,-0.58
2019-01-20T01:32:52.064Z,-0.54
2019-01-20T01:35:21.126Z,-0.49
2019-01-20T01:37:50.067Z,-0.40
2019-01-20T01:40:19.244Z,-0.37
2019-01-20T01:42:48.125Z,-0.32
2019-01-20T01:45:18.687Z,-0.33
2019-01-20T01:47:47.683Z,-0.39
2019-01-20T01:50:17.566Z,-0.42
2019-01-20T01:52:46.476Z,-0.48
2019-01-20T01:55:15.537Z,-0.44
2019-01-20T01:57:44.399Z,-0.40
2019-01-20T02:00:18.245Z,-0.43
2019-01-20T02:02:47.183Z,-0.49
2019-01-20T02:05:16.280Z,-0.62
2019-01-20T02:07:45.167Z,-0.71
2019-01-20T02:13:41.628Z,-0.72
2019-01-20T02:16:55.283Z,-0.66
2019-01-20T02:19:24.230Z,-0.66
2019-01-20T02:21:53.113Z,-0.68
2019-01-20T02:24:22.025Z,-0.68
2019-01-20T02:26:51.001Z,-0.81
2019-01-20T02:29:19.953Z,-0.88
2019-01-20T02:31:48.818Z,-0.93
2019-01-20T02:34:17.849Z,-0.88
2019-01-20T02:36:46.761Z,-0.95
2019-01-20T02:39:15.588Z,-0.97
2019-01-20T02:41:44.473Z,-1.05
2019-01-20T02:44:13.370Z,-1.02
2019-01-20T02:46:42.328Z,-1.06
2019-01-20T02:49:11.267Z,-1.05
2019-01-20T02:51:40.057Z,-1.05
2019-01-20T02:54:09.030Z,-1.04
2019-01-20T02:56:37.897Z,-1.04
2019-01-20T02:59:06.772Z,-1.03
2019-01-20T03:01:35.628Z,-1.01
2019-01-20T03:04:04.580Z,-1.05
2019-01-20T03:06:33.602Z,-1.13
2019-01-20T03:09:04.119Z,-1.17
2019-01-20T03:11:32.993Z,-1.20
2019-01-20T03:14:01.800Z,-1.21
2019-01-20T03:16:30.753Z,-1.05
2019-01-20T03:18:59.692Z,-1.13
2019-01-20T03:21:28.631Z,-1.06
2019-01-20T03:23:57.457Z,-1.12
2019-01-20T03:26:26.370Z,-1.08
2019-01-20T03:28:55.231Z,-1.11
2019-01-20T03:31:24.123Z,-1.13
2019-01-20T03:33:52.915Z,-1.11
2019-01-20T03:36:21.755Z,-1.06
2019-01-20T03:38:50.598Z,-1.03
2019-01-20T03:41:19.548Z,-0.93
2019-01-20T03:43:48.431Z,-1.02
2019-01-20T03:46:17.306Z,-1.19
2019-01-20T03:48:46.242Z,-1.24
2019-01-20T03:51:15.121Z,-1.28
2019-01-20T03:53:44.118Z,-1.33
2019-01-20T03:56:12.952Z,-1.32
2019-01-20T03:58:41.938Z,-1.40
2019-01-20T04:01:10.901Z,-1.41
2019-01-20T04:03:39.781Z,-1.37
2019-01-20T04:06:08.650Z,-1.42
2019-01-20T04:08:37.597Z,-1.46
2019-01-20T04:11:06.497Z,-1.47
2019-01-20T04:13:35.370Z,-1.47
2019-01-20T04:16:04.540Z,-1.58
2019-01-20T04:18:33.396Z,-1.61
2019-01-20T04:21:02.197Z,-1.58
2019-01-20T04:23:31.134Z,-1.52
2019-01-20T04:25:59.929Z,-1.42
2019-01-20T04:28:28.792Z,-1.32
2019-01-20T04:30:57.674Z,-1.35
2019-01-20T04:33:26.530Z,-1.40
2019-01-20T04:35:55.412Z,-1.49
2019-01-20T04:38:24.273Z,-1.46
2019-01-20T04:40:53.148Z,-1.43
2019-01-20T04:43:22.068Z,-1.38
2019-01-20T04:45:50.870Z,-1.33
2019-01-20T04:48:19.737Z,-1.30
2019-01-20T04:50:48.603Z,-1.23
2019-01-20T04:53:17.592Z,-1.18
2019-01-20T04:55:46.469Z,-1.16
2019-01-20T04:58:15.742Z,-1.18
2019-01-20T05:00:44.658Z,-1.25
2019-01-20T05:03:13.588Z,-1.43
2019-01-20T05:05:42.464Z,-1.53
2019-01-20T05:08:11.389Z,-1.61
2019-01-20T05:10:40.296Z,-1.77
2019-01-20T05:13:09.238Z,-1.81
2019-01-20T05:15:38.200Z,-1.85
2019-01-20T05:18:07.158Z,-1.70
2019-01-20T05:20:36.088Z,-1.90
2019-01-20T05:23:05.066Z,-2.04
2019-01-20T05:25:33.844Z,-2.20
2019-01-20T05:28:02.700Z,-2.16
2019-01-20T05:30:31.702Z,-1.99
2019-01-20T05:33:00.581Z,-1.92
2019-01-20T05:35:29.547Z,-1.83
2019-01-20T05:37:58.423Z,-1.81
2019-01-20T05:40:27.373Z,-1.79
2019-01-20T05:42:56.262Z,-1.74
2019-01-20T05:45:25.987Z,-1.74
2019-01-20T05:47:54.926Z,-1.74
2019-01-20T05:50:23.874Z,-1.76
2019-01-20T05:52:52.732Z,-1.79
2019-01-20T05:55:21.703Z,-1.85
2019-01-20T05:57:50.556Z,-1.81
2019-01-20T06:00:21.972Z,-1.85
2019-01-20T06:02:50.925Z,-1.97
2019-01-20T06:05:19.765Z,-2.01
2019-01-20T06:07:48.677Z,-2.00
2019-01-20T06:10:17.614Z,-1.95
2019-01-20T06:12:53.642Z,-2.01
2019-01-20T06:15:18.458Z,-2.08
2019-01-20T06:17:47.385Z,-2.09
2019-01-20T06:20:16.942Z,-2.10
2019-01-20T06:22:45.904Z,-2.22
2019-01-20T06:25:14.848Z,-2.31
2019-01-20T06:27:43.967Z,-2.42
2019-01-20T06:30:21.507Z,-2.42
2019-01-20T06:32:50.425Z,-2.45
2019-01-20T06:35:19.272Z,-2.34
2019-01-20T06:37:48.200Z,-2.33
2019-01-20T06:40:17.071Z,-2.34
2019-01-20T06:42:45.998Z,-2.32
2019-01-20T06:45:14.986Z,-2.37
2019-01-20T06:47:43.854Z,-2.52
2019-01-20T06:50:13.679Z,-2.46
2019-01-20T06:52:42.601Z,-2.29
2019-01-20T06:55:12.638Z,-2.36
2019-01-20T06:57:41.613Z,-2.47
2019-01-20T07:00:16.248Z,-2.74
2019-01-20T07:02:45.225Z,-2.97
2019-01-20T07:05:14.251Z,-2.89
2019-01-20T07:07:43.165Z,-2.87
2019-01-20T07:10:13.224Z,-2.84
2019-01-20T07:12:42.085Z,-2.94
2019-01-20T07:15:15.979Z,-2.90
2019-01-20T07:17:44.822Z,-2.75
2019-01-20T07:22:42.489Z,-2.45
2019-01-20T07:25:11.723Z,-2.43
2019-01-20T07:27:40.754Z,-2.44
2019-01-20T07:30:13.019Z,-2.51
2019-01-20T07:32:41.899Z,-2.38
2019-01-20T07:35:10.840Z,-2.25
2019-01-20T07:37:39.705Z,-2.40
2019-01-20T07:40:10.497Z,-2.37
2019-01-20T07:42:39.447Z,-2.50
2019-01-20T07:45:10.307Z,-2.64
2019-01-20T07:47:39.220Z,-2.60
2019-01-20T07:50:12.033Z,-2.42
2019-01-20T07:52:41.015Z,-2.30
2019-01-20T07:55:10.183Z,-2.18
2019-01-20T07:57:39.085Z,-2.10
2019-01-20T08:00:10.645Z,-2.10
2019-01-20T08:02:39.522Z,-2.11
2019-01-20T08:05:08.661Z,-2.26
2019-01-20T08:07:37.628Z,-2.18
2019-01-20T08:10:09.787Z,-2.20
2019-01-20T08:12:38.786Z,-2.35
2019-01-20T08:15:08.868Z,-2.36
2019-01-20T08:17:37.782Z,-2.33
2019-01-20T08:20:09.010Z,-2.24
2019-01-20T08:22:37.909Z,-2.27
2019-01-20T08:25:07.243Z,-2.29
2019-01-20T08:27:36.249Z,-2.42
2019-01-20T08:30:06.267Z,-2.39
2019-01-20T08:32:35.222Z,-2.31
2019-01-20T08:35:04.236Z,-2.23
2019-01-20T08:37:34.320Z,-2.19
2019-01-20T08:40:03.453Z,-2.18
2019-01-20T08:42:32.363Z,-2.26
2019-01-20T08:45:01.325Z,-2.21
2019-01-20T08:47:39.697Z,-2.09
2019-01-20T08:50:11.791Z,-2.09
2019-01-20T08:52:40.694Z,-2.01
2019-01-20T08:55:10.165Z,-2.11
2019-01-20T08:57:39.009Z,-1.98
2019-01-20T09:00:12.335Z,-1.92
2019-01-20T09:02:41.286Z,-2.03
2019-01-20T09:05:10.260Z,-2.16
2019-01-20T09:07:39.235Z,-2.10
2019-01-20T09:10:21.269Z,-2.19
2019-01-20T09:12:50.464Z,-2.15
2019-01-20T09:15:19.428Z,-2.02
2019-01-20T09:17:48.380Z,-1.98
2019-01-20T09:20:17.345Z,-1.90
2019-01-20T09:22:46.255Z,-1.79
2019-01-20T09:25:15.321Z,-1.75
2019-01-20T09:27:44.335Z,-1.68
2019-01-20T09:30:18.601Z,-1.64
2019-01-20T09:32:47.614Z,-1.80
2019-01-20T09:35:16.603Z,-1.78
2019-01-20T09:37:45.587Z,-1.77
2019-01-20T09:40:15.120Z,-1.74
2019-01-20T09:42:44.044Z,-1.74
2019-01-20T09:45:28.479Z,-1.87
2019-01-20T09:47:57.562Z,-1.88
2019-01-20T09:50:26.518Z,-1.73
2019-01-20T09:52:55.677Z,-1.58
2019-01-20T09:55:24.766Z,-1.43
2019-01-20T09:57:53.690Z,-1.47
2019-01-20T10:00:24.409Z,-1.37
2019-01-20T10:02:53.472Z,-1.43
2019-01-20T10:05:22.947Z,-1.42
2019-01-20T10:07:52.432Z,-1.42
2019-01-20T10:10:21.470Z,-1.36
2019-01-20T10:12:50.470Z,-1.41
2019-01-20T10:15:19.451Z,-1.47
2019-01-20T10:17:48.944Z,-1.30
2019-01-20T10:20:28.959Z,-1.20
2019-01-20T10:22:58.030Z,-1.20
2019-01-20T10:25:27.128Z,-1.25
2019-01-20T10:27:56.213Z,-1.46
2019-01-20T10:30:27.418Z,-1.45
2019-01-20T10:32:56.459Z,-1.32
2019-01-20T10:35:29.876Z,-1.28
2019-01-20T10:38:00.505Z,-1.30
2019-01-20T10:40:29.486Z,-1.20
2019-01-20T10:42:58.485Z,-1.11
2019-01-20T10:45:27.464Z,-0.89
2019-01-20T10:47:56.367Z,-0.75
2019-01-20T10:50:25.322Z,-0.85
2019-01-20T10:52:54.380Z,-0.74
2019-01-20T10:55:23.309Z,-0.76
2019-01-20T10:57:52.349Z,-0.70
2019-01-20T11:00:24.356Z,-0.63
2019-01-20T11:02:53.264Z,-0.60
2019-01-20T11:05:24.927Z,-0.68
2019-01-20T11:07:52.942Z,-0.64
2019-01-20T11:10:21.848Z,-0.48
2019-01-20T11:12:50.815Z,-0.47
2019-01-20T11:15:19.868Z,-0.34
2019-01-20T11:17:48.778Z,-0.38
2019-01-20T11:20:17.830Z,-0.18
2019-01-20T11:22:46.816Z,0.02
2019-01-20T11:25:21.383Z,0.12
2019-01-20T11:27:50.272Z,0.14
2019-01-20T11:30:19.290Z,0.29
2019-01-20T11:32:48.192Z,0.24
2019-01-20T11:35:17.819Z,0.13
2019-01-20T11:37:47.039Z,0.17
2019-01-20T11:40:16.140Z,0.18
2019-01-20T11:42:45.029Z,0.23
2019-01-20T11:45:18.606Z,0.43
2019-01-20T11:47:47.640Z,0.50
2019-01-20T11:50:17.042Z,0.57
2019-01-20T11:52:46.065Z,0.58
2019-01-20T11:55:16.743Z,0.49
2019-01-20T11:57:45.749Z,0.75
2019-01-20T12:00:17.937Z,1.08
2019-01-20T12:02:46.907Z,1.14
2019-01-20T12:05:15.943Z,1.16
2019-01-20T12:07:44.954Z,1.23
2019-01-20T12:10:14.156Z,0.93
2019-01-20T12:12:45.668Z,0.86
2019-01-20T12:15:14.708Z,0.67
2019-01-20T12:17:43.674Z,0.69
2019-01-20T12:20:13.091Z,0.61
2019-01-20T12:22:42.002Z,0.35
2019-01-20T12:25:13.661Z,0.37
2019-01-20T12:27:42.635Z,0.45
2019-01-20T12:30:15.159Z,0.52
2019-01-20T12:32:44.152Z,0.67
2019-01-20T12:35:13.077Z,0.86
2019-01-20T12:37:42.004Z,1.04
2019-01-20T12:40:17.658Z,1.10
2019-01-20T12:42:46.667Z,1.16
2019-01-20T12:45:15.595Z,0.89
2019-01-20T12:47:44.572Z,0.81
2019-01-20T12:50:14.690Z,0.86
2019-01-20T12:52:43.852Z,0.93
2019-01-20T12:55:13.234Z,1.03
2019-01-20T12:57:42.237Z,1.03
2019-01-20T13:00:13.496Z,1.18
2019-01-20T13:02:42.499Z,0.77
2019-01-20T13:05:11.493Z,0.53
2019-01-20T13:07:40.538Z,0.59
2019-01-20T13:10:10.778Z,0.62
2019-01-20T13:12:39.879Z,0.63
2019-01-20T13:15:11.040Z,0.23
2019-01-20T13:17:40.005Z,0.15
2019-01-20T13:20:11.542Z,-0.09
2019-01-20T13:22:40.558Z,-0.11
2019-01-20T13:25:11.372Z,-0.35
2019-01-20T13:27:40.383Z,-0.53
2019-01-20T13:30:13.004Z,-0.78
2019-01-20T13:32:42.078Z,-0.64
2019-01-20T13:35:11.270Z,-0.54
2019-01-20T13:37:42.735Z,-0.69
2019-01-20T13:40:14.870Z,-0.84
2019-01-20T13:42:43.820Z,-0.68
2019-01-20T13:45:13.132Z,-0.69
2019-01-20T13:47:48.515Z,-1.01
2019-01-20T13:50:15.383Z,-1.02
2019-01-20T13:52:44.311Z,-1.01
2019-01-20T13:55:13.612Z,-1.24
2019-01-20T13:57:42.674Z,-1.34
2019-01-20T14:00:21.626Z,-1.34
2019-01-20T14:02:50.591Z,-1.33
2019-01-20T14:05:19.614Z,-1.36
2019-01-20T14:07:48.663Z,-1.38
2019-01-20T14:10:18.661Z,-1.30
2019-01-20T14:12:47.680Z,-1.35
2019-01-20T14:15:16.593Z,-1.29
2019-01-20T14:17:45.620Z,-1.27
2019-01-20T14:20:16.962Z,-1.13
2019-01-20T14:22:46.121Z,-1.11
2019-01-20T14:25:16.966Z,-1.15
2019-01-20T14:27:46.015Z,-1.26
2019-01-20T14:30:20.338Z,-1.26
2019-01-20T14:32:49.270Z,-1.29
2019-01-20T14:35:18.221Z,-1.34
2019-01-20T14:37:47.218Z,-1.25
2019-01-20T14:40:16.506Z,-1.23
2019-01-20T14:42:45.533Z,-1.29
2019-01-20T14:45:15.053Z,-1.22
2019-01-20T14:47:44.109Z,-1.13
2019-01-20T14:50:16.487Z,-1.14
2019-01-20T14:52:45.502Z,-1.24
2019-01-20T14:55:14.638Z,-1.30
2019-01-20T14:57:43.615Z,-1.55
2019-01-20T15:00:16.182Z,-1.58
2019-01-20T15:02:45.194Z,-1.60
2019-01-20T15:05:14.283Z,-1.47
2019-01-20T15:07:43.228Z,-1.32
2019-01-20T15:10:12.290Z,-1.63
2019-01-20T15:12:41.270Z,-1.53
2019-01-20T15:15:12.301Z,-1.40
2019-01-20T15:17:41.270Z,-1.58
2019-01-20T15:20:10.807Z,-1.46
2019-01-20T15:22:39.912Z,-1.41
2019-01-20T15:25:10.239Z,-1.54
2019-01-20T15:27:39.148Z,-1.47
2019-01-20T15:30:12.916Z,-1.59
2019-01-20T15:32:41.963Z,-1.44
2019-01-20T15:35:10.961Z,-1.27
2019-01-20T15:37:40.096Z,-1.36
2019-01-20T15:40:10.268Z,-1.49
2019-01-20T15:42:39.269Z,-1.66
2019-01-20T15:45:16.389Z,-1.56
2019-01-20T15:47:40.837Z,-1.61
2019-01-20T15:50:12.852Z,-1.62
2019-01-20T15:52:41.741Z,-1.92
2019-01-20T15:55:10.910Z,-1.85
2019-01-20T15:57:39.925Z,-1.94
2019-01-20T16:00:11.871Z,-1.94
2019-01-20T16:02:40.891Z,-2.10
2019-01-20T16:05:09.961Z,-2.12
2019-01-20T16:07:38.983Z,-1.95
2019-01-20T16:10:09.234Z,-1.78
2019-01-20T16:12:38.321Z,-1.84
2019-01-20T16:15:14.959Z,-1.92
2019-01-20T16:17:44.599Z,-2.00
2019-01-20T16:20:14.291Z,-1.95
2019-01-20T16:22:43.384Z,-2.15
2019-01-20T16:25:17.677Z,-2.19
2019-01-20T16:27:46.698Z,-2.14
2019-01-20T16:30:21.312Z,-2.13
2019-01-20T16:32:50.330Z,-2.18
2019-01-20T16:35:19.223Z,-2.16
2019-01-20T16:37:48.205Z,-2.13
2019-01-20T16:40:18.970Z,-2.18
2019-01-20T16:42:47.962Z,-2.10
2019-01-20T16:45:18.856Z,-1.95
2019-01-20T16:47:47.849Z,-1.87
2019-01-20T16:50:19.311Z,-1.90
2019-01-20T16:52:48.261Z,-2.02
2019-01-20T16:55:17.265Z,-2.04
2019-01-20T16:57:46.286Z,-2.17
2019-01-20T17:00:21.101Z,-2.02
2019-01-20T17:02:50.126Z,-2.03
2019-01-20T17:05:19.124Z,-2.01
2019-01-20T17:07:48.137Z,-1.91
2019-01-20T17:10:19.986Z,-1.86
2019-01-20T17:12:49.194Z,-2.00
2019-01-20T17:15:20.626Z,-1.99
2019-01-20T17:17:49.600Z,-1.97
2019-01-20T17:20:18.936Z,-1.92
2019-01-20T17:22:48.175Z,-2.03
2019-01-20T17:25:18.494Z,-2.07
2019-01-20T17:27:47.552Z,-2.16
2019-01-20T17:30:18.832Z,-2.30
2019-01-20T17:32:47.886Z,-2.31
2019-01-20T17:35:16.941Z,-2.20
2019-01-20T17:37:45.951Z,-2.20
2019-01-20T17:40:20.137Z,-2.22
2019-01-20T17:42:49.134Z,-2.27
2019-01-20T17:45:20.883Z,-2.28
2019-01-20T17:47:49.853Z,-2.14
2019-01-20T17:50:27.354Z,-2.10
2019-01-20T17:52:56.476Z,-2.09
2019-01-20T17:55:25.896Z,-2.34
2019-01-20T17:57:54.827Z,-2.19
2019-01-20T18:00:30.014Z,-2.23
2019-01-20T18:02:59.473Z,-2.49
2019-01-20T18:05:29.188Z,-2.54
2019-01-20T18:07:58.861Z,-2.46
2019-01-20T18:10:28.105Z,-2.50
2019-01-20T18:12:58.044Z,-2.53
2019-01-20T18:15:27.276Z,-2.46
2019-01-20T18:17:56.884Z,-2.45
2019-01-20T18:20:28.173Z,-2.46
2019-01-20T18:22:57.848Z,-2.63
2019-01-20T18:25:27.243Z,-2.57
2019-01-20T18:27:56.769Z,-2.39
2019-01-20T18:30:29.670Z,-2.44
2019-01-20T18:32:59.269Z,-2.43
2019-01-20T18:35:29.139Z,-2.52
2019-01-20T18:37:58.612Z,-2.56
2019-01-20T18:40:28.542Z,-2.41
2019-01-20T18:42:57.775Z,-2.35
2019-01-20T18:45:29.240Z,-2.32
2019-01-20T18:47:58.556Z,-2.36
2019-01-20T18:50:42.919Z,-2.54
2019-01-20T18:53:11.999Z,-2.62
2019-01-20T18:55:41.321Z,-2.67
2019-01-20T18:58:10.674Z,-2.71
2019-01-20T19:00:45.679Z,-2.74
2019-01-20T19:03:14.871Z,-2.63
2019-01-20T19:05:44.067Z,-2.68
2019-01-20T19:08:13.392Z,-2.65
2019-01-20T19:10:43.118Z,-2.70
2019-01-20T19:13:12.319Z,-2.74
2019-01-20T19:16:25.787Z,-2.79
2019-01-20T19:18:55.136Z,-2.76
2019-01-20T19:21:24.148Z,-2.69
2019-01-20T19:23:53.245Z,-2.70
2019-01-20T19:26:22.686Z,-2.58
2019-01-20T19:28:52.361Z,-2.63
2019-01-20T19:31:47.777Z,-2.77
2019-01-20T19:34:56.637Z,-2.88
2019-01-20T19:40:19.165Z,-2.78
2019-01-20T19:43:07.347Z,-2.82
2019-01-20T19:49:04.336Z,-2.94
2019-01-20T19:54:32.603Z,-2.85
2019-01-20T19:57:02.202Z,-2.86
2019-01-20T19:59:31.552Z,-2.94
2019-01-20T20:02:00.666Z,-2.87
2019-01-20T20:04:30.027Z,-2.79
2019-01-20T20:06:59.294Z,-2.91
2019-01-20T20:09:28.369Z,-2.83
2019-01-20T20:11:57.469Z,-2.83
2019-01-20T20:14:26.552Z,-2.83
2019-01-20T20:16:55.855Z,-2.79
2019-01-20T20:19:25.312Z,-2.85
2019-01-20T20:21:54.432Z,-2.88
2019-01-20T20:24:25.448Z,-2.83
2019-01-20T20:26:54.798Z,-3.08
2019-01-20T20:29:23.917Z,-3.10
2019-01-20T20:31:53.085Z,-3.01
2019-01-20T20:34:22.236Z,-3.09
2019-01-20T20:36:51.817Z,-2.91
2019-01-20T20:39:22.170Z,-2.91
2019-01-20T20:41:51.953Z,-3.03
2019-01-20T20:44:21.643Z,-2.98
2019-01-20T20:46:51.071Z,-2.81
2019-01-20T20:49:20.347Z,-2.98
2019-01-20T20:51:49.830Z,-2.98
2019-01-20T20:54:19.447Z,-2.94
2019-01-20T20:56:49.937Z,-2.88
2019-01-20T20:59:19.942Z,-2.96
2019-01-20T21:01:49.411Z,-3.05
2019-01-20T21:04:18.656Z,-2.85
2019-01-20T21:06:48.238Z,-2.83
2019-01-20T21:09:17.451Z,-2.77
2019-01-20T21:11:46.520Z,-2.68
2019-01-20T21:14:15.662Z,-2.70
2019-01-20T21:16:45.116Z,-2.76
2019-01-20T21:19:14.222Z,-2.74
2019-01-20T21:21:43.297Z,-2.65
2019-01-20T21:24:12.539Z,-2.66
2019-01-20T21:26:44.534Z,-2.70
2019-01-20T21:29:12.425Z,-2.68
2019-01-20T21:31:41.498Z,-2.64
2019-01-20T21:34:10.839Z,-2.62
2019-01-20T21:36:40.077Z,-2.74
2019-01-20T21:39:09.985Z,-2.82
2019-01-20T21:41:38.998Z,-2.80
2019-01-20T21:44:07.974Z,-2.87
2019-01-20T21:46:37.123Z,-3.25
2019-01-20T21:49:06.134Z,-3.17
2019-01-20T21:51:35.204Z,-3.09
2019-01-20T21:54:04.199Z,-3.15
2019-01-20T21:56:33.273Z,-3.19
2019-01-20T21:59:02.317Z,-3.28
2019-01-20T22:01:31.590Z,-3.40
2019-01-20T22:04:00.825Z,-3.28
2019-01-20T22:06:29.882Z,-3.26
2019-01-20T22:08:59.031Z,-3.34
2019-01-20T22:11:28.078Z,-3.41
2019-01-20T22:13:57.370Z,-3.35
2019-01-20T22:16:27.172Z,-3.47
2019-01-20T22:18:56.619Z,-3.39
2019-01-20T22:21:25.594Z,-3.39
2019-01-20T22:23:54.630Z,-3.45
2019-01-20T22:26:24.552Z,-3.41
2019-01-20T22:28:53.613Z,-3.32
2019-01-20T22:31:23.181Z,-3.41
2019-01-20T22:33:52.503Z,-3.28
2019-01-20T22:36:21.576Z,-3.24
2019-01-20T22:38:50.650Z,-3.25
2019-01-20T22:41:19.631Z,-3.36
2019-01-20T22:43:48.674Z,-3.38
2019-01-20T22:46:17.743Z,-3.40
2019-01-20T22:48:46.708Z,-3.26
2019-01-20T22:51:15.792Z,-3.30
2019-01-20T22:53:44.813Z,-3.23
2019-01-20T22:56:13.839Z,-3.37
2019-01-20T22:58:43.232Z,-3.33
2019-01-20T23:01:20.436Z,-3.51
2019-01-20T23:03:50.020Z,-3.59
2019-01-20T23:06:19.096Z,-3.44
2019-01-20T23:08:48.109Z,-3.42
2019-01-20T23:11:17.115Z,-3.38
2019-01-20T23:13:46.158Z,-3.44
2019-01-20T23:16:15.242Z,-3.28
2019-01-20T23:18:44.420Z,-3.14
2019-01-20T23:21:13.513Z,-3.22
2019-01-20T23:23:42.390Z,-3.14
2019-01-20T23:26:11.891Z,-3.09
2019-01-20T23:28:40.915Z,-3.10
2019-01-20T23:31:10.043Z,-3.06
2019-01-20T23:33:39.644Z,-3.08
2019-01-20T23:36:08.653Z,-3.20
2019-01-20T23:38:37.597Z,-3.15
2019-01-20T23:41:06.573Z,-3.18
2019-01-20T23:43:35.478Z,-3.27
2019-01-20T23:46:04.453Z,-3.31
2019-01-20T23:48:33.601Z,-3.35
2019-01-20T23:51:02.519Z,-3.30
2019-01-20T23:53:31.443Z,-3.29
2019-01-20T23:56:00.758Z,-3.27
2019-01-20T23:58:30.248Z,-3.19
